sensor_id;sensor_type;location;lat;lon;timestamp;P1;durP1;ratioP1;P2;durP2;ratioP2
2123;SDS011;1068;52.460;13.528;2022-12-05T00:00:14;113.43;;;45.72;;
2123;SDS011;1068;52.460;13.528;2022-12-05T00:02:41;102.18;;;45.65;;
2123;SDS011;1068;52.460;13.528;2022-12-05T00:05:09;112.43;;;45.90;;
2123;SDS011;1068;52.460;13.528;2022-12-05T00:07:36;110.97;;;43.67;;
2123;SDS011;1068;52.460;13.528;2022-12-05T00:10:04;104.07;;;45.20;;
2123;SDS011;1068;52.460;13.528;2022-12-05T00:12:31;110.63;;;46.15;;
2123;SDS011;1068;52.460;13.528;2022-12-05T00:14:58;109.70;;;46.70;;
2123;SDS011;1068;52.460;13.528;2022-12-05T00:17:26;122.50;;;46.08;;
2123;SDS011;1068;52.460;13.528;2022-12-05T00:19:53;101.22;;;44.65;;
2123;SDS011;1068;52.460;13.528;2022-12-05T00:22:20;111.65;;;43.33;;
2123;SDS011;1068;52.460;13.528;2022-12-05T00:24:47;112.38;;;44.97;;
2123;SDS011;1068;52.460;13.528;2022-12-05T00:27:14;105.70;;;45.55;;
2123;SDS011;1068;52.460;13.528;2022-12-05T00:29:40;103.03;;;44.80;;
2123;SDS011;1068;52.460;13.528;2022-12-05T00:32:07;108.38;;;45.85;;
2123;SDS011;1068;52.460;13.528;2022-12-05T00:34:36;111.10;;;45.92;;
2123;SDS011;1068;52.460;13.528;2022-12-05T00:37:02;114.30;;;48.97;;
2123;SDS011;1068;52.460;13.528;2022-12-05T00:39:29;108.35;;;42.78;;
2123;SDS011;1068;52.460;13.528;2022-12-05T00:41:56;110.68;;;43.65;;
2123;SDS011;1068;52.460;13.528;2022-12-05T00:44:23;104.70;;;44.53;;
2123;SDS011;1068;52.460;13.528;2022-12-05T00:46:50;102.78;;;44.65;;
2123;SDS011;1068;52.460;13.528;2022-12-05T00:49:17;110.68;;;45.88;;
2123;SDS011;1068;52.460;13.528;2022-12-05T00:51:45;101.63;;;43.53;;
2123;SDS011;1068;52.460;13.528;2022-12-05T00:54:13;92.95;;;42.90;;
2123;SDS011;1068;52.460;13.528;2022-12-05T00:56:40;95.40;;;43.45;;
2123;SDS011;1068;52.460;13.528;2022-12-05T00:59:07;106.53;;;45.55;;
2123;SDS011;1068;52.460;13.528;2022-12-05T01:01:35;94.72;;;41.55;;
2123;SDS011;1068;52.460;13.528;2022-12-05T01:04:04;117.65;;;45.33;;
2123;SDS011;1068;52.460;13.528;2022-12-05T01:06:31;102.68;;;43.88;;
2123;SDS011;1068;52.460;13.528;2022-12-05T01:09:00;101.72;;;43.70;;
2123;SDS011;1068;52.460;13.528;2022-12-05T01:11:27;102.10;;;43.55;;
2123;SDS011;1068;52.460;13.528;2022-12-05T01:13:54;107.38;;;45.38;;
2123;SDS011;1068;52.460;13.528;2022-12-05T01:16:22;105.35;;;44.47;;
2123;SDS011;1068;52.460;13.528;2022-12-05T01:18:49;108.25;;;44.63;;
2123;SDS011;1068;52.460;13.528;2022-12-05T01:21:16;106.75;;;43.63;;
2123;SDS011;1068;52.460;13.528;2022-12-05T01:23:43;99.43;;;41.53;;
2123;SDS011;1068;52.460;13.528;2022-12-05T01:26:12;99.03;;;41.53;;
2123;SDS011;1068;52.460;13.528;2022-12-05T01:28:39;109.55;;;45.35;;
2123;SDS011;1068;52.460;13.528;2022-12-05T01:31:07;99.78;;;42.55;;
2123;SDS011;1068;52.460;13.528;2022-12-05T01:33:35;99.45;;;39.92;;
2123;SDS011;1068;52.460;13.528;2022-12-05T01:36:02;95.45;;;43.15;;
2123;SDS011;1068;52.460;13.528;2022-12-05T01:38:29;93.65;;;42.55;;
2123;SDS011;1068;52.460;13.528;2022-12-05T01:40:59;99.63;;;42.88;;
2123;SDS011;1068;52.460;13.528;2022-12-05T01:43:28;92.53;;;41.50;;
2123;SDS011;1068;52.460;13.528;2022-12-05T01:45:55;99.15;;;43.28;;
2123;SDS011;1068;52.460;13.528;2022-12-05T01:48:24;101.43;;;43.42;;
2123;SDS011;1068;52.460;13.528;2022-12-05T01:50:51;98.45;;;41.42;;
2123;SDS011;1068;52.460;13.528;2022-12-05T01:53:18;83.00;;;40.65;;
2123;SDS011;1068;52.460;13.528;2022-12-05T01:55:46;98.43;;;43.53;;
2123;SDS011;1068;52.460;13.528;2022-12-05T01:58:13;91.07;;;42.67;;
2123;SDS011;1068;52.460;13.528;2022-12-05T02:00:42;109.18;;;44.05;;
2123;SDS011;1068;52.460;13.528;2022-12-05T02:03:10;99.07;;;41.25;;
2123;SDS011;1068;52.460;13.528;2022-12-05T02:05:38;98.93;;;41.95;;
2123;SDS011;1068;52.460;13.528;2022-12-05T02:08:06;105.95;;;42.45;;
2123;SDS011;1068;52.460;13.528;2022-12-05T02:10:34;93.47;;;42.00;;
2123;SDS011;1068;52.460;13.528;2022-12-05T02:13:04;101.32;;;40.90;;
2123;SDS011;1068;52.460;13.528;2022-12-05T02:15:36;88.47;;;39.20;;
2123;SDS011;1068;52.460;13.528;2022-12-05T02:18:11;85.18;;;39.15;;
2123;SDS011;1068;52.460;13.528;2022-12-05T02:20:43;89.05;;;40.42;;
2123;SDS011;1068;52.460;13.528;2022-12-05T02:23:22;76.63;;;37.65;;
2123;SDS011;1068;52.460;13.528;2022-12-05T02:28:45;97.18;;;40.53;;
2123;SDS011;1068;52.460;13.528;2022-12-05T02:31:19;88.68;;;39.35;;
2123;SDS011;1068;52.460;13.528;2022-12-05T02:33:49;88.50;;;38.92;;
2123;SDS011;1068;52.460;13.528;2022-12-05T02:36:20;82.43;;;40.03;;
2123;SDS011;1068;52.460;13.528;2022-12-05T02:38:49;88.20;;;38.63;;
2123;SDS011;1068;52.460;13.528;2022-12-05T02:41:20;84.45;;;38.70;;
2123;SDS011;1068;52.460;13.528;2022-12-05T02:43:50;95.90;;;39.28;;
2123;SDS011;1068;52.460;13.528;2022-12-05T02:46:20;88.45;;;38.47;;
2123;SDS011;1068;52.460;13.528;2022-12-05T02:48:47;87.70;;;34.45;;
2123;SDS011;1068;52.460;13.528;2022-12-05T02:51:16;94.68;;;36.85;;
2123;SDS011;1068;52.460;13.528;2022-12-05T02:53:45;82.70;;;38.25;;
2123;SDS011;1068;52.460;13.528;2022-12-05T02:56:13;81.22;;;36.80;;
2123;SDS011;1068;52.460;13.528;2022-12-05T02:58:42;84.07;;;36.55;;
2123;SDS011;1068;52.460;13.528;2022-12-05T03:01:11;86.82;;;36.85;;
2123;SDS011;1068;52.460;13.528;2022-12-05T03:03:39;71.70;;;36.92;;
2123;SDS011;1068;52.460;13.528;2022-12-05T03:06:08;86.93;;;37.28;;
2123;SDS011;1068;52.460;13.528;2022-12-05T03:08:38;75.32;;;35.25;;
2123;SDS011;1068;52.460;13.528;2022-12-05T03:11:06;65.10;;;34.78;;
2123;SDS011;1068;52.460;13.528;2022-12-05T03:13:35;78.93;;;34.85;;
2123;SDS011;1068;52.460;13.528;2022-12-05T03:16:04;79.00;;;37.33;;
2123;SDS011;1068;52.460;13.528;2022-12-05T03:18:33;75.38;;;36.35;;
2123;SDS011;1068;52.460;13.528;2022-12-05T03:21:06;91.90;;;36.58;;
2123;SDS011;1068;52.460;13.528;2022-12-05T03:23:35;83.03;;;37.38;;
2123;SDS011;1068;52.460;13.528;2022-12-05T03:26:04;71.50;;;35.22;;
2123;SDS011;1068;52.460;13.528;2022-12-05T03:28:37;79.07;;;34.00;;
2123;SDS011;1068;52.460;13.528;2022-12-05T03:31:07;71.85;;;35.03;;
2123;SDS011;1068;52.460;13.528;2022-12-05T03:33:35;78.07;;;35.67;;
2123;SDS011;1068;52.460;13.528;2022-12-05T03:36:05;71.80;;;36.25;;
2123;SDS011;1068;52.460;13.528;2022-12-05T03:38:36;76.65;;;34.80;;
2123;SDS011;1068;52.460;13.528;2022-12-05T03:41:06;75.47;;;36.42;;
2123;SDS011;1068;52.460;13.528;2022-12-05T03:43:36;79.53;;;36.35;;
2123;SDS011;1068;52.460;13.528;2022-12-05T03:46:04;68.35;;;34.30;;
2123;SDS011;1068;52.460;13.528;2022-12-05T03:48:33;73.75;;;35.70;;
2123;SDS011;1068;52.460;13.528;2022-12-05T03:51:00;72.25;;;34.83;;
2123;SDS011;1068;52.460;13.528;2022-12-05T03:53:31;61.50;;;32.00;;
2123;SDS011;1068;52.460;13.528;2022-12-05T03:56:00;69.93;;;32.83;;
2123;SDS011;1068;52.460;13.528;2022-12-05T03:58:30;60.95;;;31.90;;
2123;SDS011;1068;52.460;13.528;2022-12-05T04:00:58;56.35;;;32.72;;
2123;SDS011;1068;52.460;13.528;2022-12-05T04:03:28;66.13;;;34.33;;
2123;SDS011;1068;52.460;13.528;2022-12-05T04:06:03;66.88;;;33.65;;
2123;SDS011;1068;52.460;13.528;2022-12-05T04:08:32;62.00;;;31.52;;
2123;SDS011;1068;52.460;13.528;2022-12-05T04:11:01;63.35;;;30.83;;
2123;SDS011;1068;52.460;13.528;2022-12-05T04:13:29;61.45;;;30.98;;
2123;SDS011;1068;52.460;13.528;2022-12-05T04:15:59;61.40;;;30.50;;
2123;SDS011;1068;52.460;13.528;2022-12-05T04:18:47;62.40;;;31.83;;
2123;SDS011;1068;52.460;13.528;2022-12-05T04:21:17;60.17;;;29.40;;
2123;SDS011;1068;52.460;13.528;2022-12-05T04:24:04;60.42;;;29.92;;
2123;SDS011;1068;52.460;13.528;2022-12-05T04:26:51;51.63;;;29.25;;
2123;SDS011;1068;52.460;13.528;2022-12-05T04:29:23;54.15;;;29.55;;
2123;SDS011;1068;52.460;13.528;2022-12-05T04:31:52;60.45;;;32.13;;
2123;SDS011;1068;52.460;13.528;2022-12-05T04:34:22;56.58;;;30.98;;
2123;SDS011;1068;52.460;13.528;2022-12-05T04:36:50;57.03;;;28.63;;
2123;SDS011;1068;52.460;13.528;2022-12-05T04:39:21;51.45;;;29.80;;
2123;SDS011;1068;52.460;13.528;2022-12-05T04:41:50;55.35;;;28.48;;
2123;SDS011;1068;52.460;13.528;2022-12-05T04:44:19;50.03;;;28.67;;
2123;SDS011;1068;52.460;13.528;2022-12-05T04:46:46;54.47;;;28.90;;
2123;SDS011;1068;52.460;13.528;2022-12-05T04:49:14;49.63;;;27.67;;
2123;SDS011;1068;52.460;13.528;2022-12-05T04:51:43;53.35;;;29.92;;
2123;SDS011;1068;52.460;13.528;2022-12-05T04:54:12;52.20;;;27.08;;
2123;SDS011;1068;52.460;13.528;2022-12-05T04:56:42;47.50;;;26.45;;
2123;SDS011;1068;52.460;13.528;2022-12-05T04:59:11;46.53;;;26.40;;
2123;SDS011;1068;52.460;13.528;2022-12-05T05:01:38;50.25;;;27.83;;
2123;SDS011;1068;52.460;13.528;2022-12-05T05:04:08;48.65;;;27.10;;
2123;SDS011;1068;52.460;13.528;2022-12-05T05:06:35;43.83;;;25.63;;
2123;SDS011;1068;52.460;13.528;2022-12-05T05:09:03;41.55;;;23.25;;
2123;SDS011;1068;52.460;13.528;2022-12-05T05:11:30;44.38;;;24.80;;
2123;SDS011;1068;52.460;13.528;2022-12-05T05:13:59;44.15;;;26.50;;
2123;SDS011;1068;52.460;13.528;2022-12-05T05:16:28;40.78;;;24.77;;
2123;SDS011;1068;52.460;13.528;2022-12-05T05:18:55;44.35;;;25.13;;
2123;SDS011;1068;52.460;13.528;2022-12-05T05:21:23;47.08;;;24.05;;
2123;SDS011;1068;52.460;13.528;2022-12-05T05:23:50;49.22;;;27.33;;
2123;SDS011;1068;52.460;13.528;2022-12-05T05:26:18;42.72;;;23.90;;
2123;SDS011;1068;52.460;13.528;2022-12-05T05:28:45;43.72;;;25.10;;
2123;SDS011;1068;52.460;13.528;2022-12-05T05:31:13;38.28;;;24.58;;
2123;SDS011;1068;52.460;13.528;2022-12-05T05:33:40;38.08;;;23.33;;
2123;SDS011;1068;52.460;13.528;2022-12-05T05:36:07;36.80;;;22.05;;
2123;SDS011;1068;52.460;13.528;2022-12-05T05:38:35;35.97;;;20.45;;
2123;SDS011;1068;52.460;13.528;2022-12-05T05:41:03;36.95;;;21.05;;
2123;SDS011;1068;52.460;13.528;2022-12-05T05:43:30;36.70;;;22.33;;
2123;SDS011;1068;52.460;13.528;2022-12-05T05:45:57;36.45;;;21.90;;
2123;SDS011;1068;52.460;13.528;2022-12-05T05:48:25;36.13;;;22.65;;
2123;SDS011;1068;52.460;13.528;2022-12-05T05:50:52;33.97;;;20.70;;
2123;SDS011;1068;52.460;13.528;2022-12-05T05:53:19;34.25;;;21.48;;
2123;SDS011;1068;52.460;13.528;2022-12-05T05:55:46;34.72;;;21.73;;
2123;SDS011;1068;52.460;13.528;2022-12-05T05:58:12;33.25;;;21.08;;
2123;SDS011;1068;52.460;13.528;2022-12-05T06:00:39;34.63;;;21.38;;
2123;SDS011;1068;52.460;13.528;2022-12-05T06:03:06;33.78;;;20.52;;
2123;SDS011;1068;52.460;13.528;2022-12-05T06:05:35;32.80;;;20.42;;
2123;SDS011;1068;52.460;13.528;2022-12-05T06:08:02;31.95;;;20.25;;
2123;SDS011;1068;52.460;13.528;2022-12-05T06:10:29;33.92;;;20.60;;
2123;SDS011;1068;52.460;13.528;2022-12-05T06:12:56;32.08;;;21.10;;
2123;SDS011;1068;52.460;13.528;2022-12-05T06:15:23;33.97;;;20.02;;
2123;SDS011;1068;52.460;13.528;2022-12-05T06:17:50;29.48;;;18.60;;
2123;SDS011;1068;52.460;13.528;2022-12-05T06:20:17;35.50;;;21.45;;
2123;SDS011;1068;52.460;13.528;2022-12-05T06:22:45;34.78;;;21.25;;
2123;SDS011;1068;52.460;13.528;2022-12-05T06:25:12;32.28;;;18.95;;
2123;SDS011;1068;52.460;13.528;2022-12-05T06:27:39;34.25;;;19.05;;
2123;SDS011;1068;52.460;13.528;2022-12-05T06:30:06;30.38;;;18.90;;
2123;SDS011;1068;52.460;13.528;2022-12-05T06:32:33;28.75;;;18.98;;
2123;SDS011;1068;52.460;13.528;2022-12-05T06:35:00;34.88;;;19.83;;
2123;SDS011;1068;52.460;13.528;2022-12-05T06:37:36;30.15;;;19.48;;
2123;SDS011;1068;52.460;13.528;2022-12-05T06:40:05;32.75;;;20.85;;
2123;SDS011;1068;52.460;13.528;2022-12-05T06:42:32;28.13;;;19.13;;
2123;SDS011;1068;52.460;13.528;2022-12-05T06:44:59;29.65;;;18.77;;
2123;SDS011;1068;52.460;13.528;2022-12-05T06:47:26;30.67;;;18.63;;
2123;SDS011;1068;52.460;13.528;2022-12-05T06:49:53;39.38;;;21.90;;
2123;SDS011;1068;52.460;13.528;2022-12-05T06:52:20;31.10;;;20.13;;
2123;SDS011;1068;52.460;13.528;2022-12-05T06:54:47;32.47;;;18.80;;
2123;SDS011;1068;52.460;13.528;2022-12-05T06:57:16;28.33;;;19.15;;
2123;SDS011;1068;52.460;13.528;2022-12-05T06:59:43;31.25;;;19.15;;
2123;SDS011;1068;52.460;13.528;2022-12-05T07:02:10;26.17;;;17.00;;
2123;SDS011;1068;52.460;13.528;2022-12-05T07:04:37;32.05;;;19.85;;
2123;SDS011;1068;52.460;13.528;2022-12-05T07:07:04;27.45;;;19.10;;
2123;SDS011;1068;52.460;13.528;2022-12-05T07:09:31;32.10;;;18.67;;
2123;SDS011;1068;52.460;13.528;2022-12-05T07:12:16;27.17;;;17.80;;
2123;SDS011;1068;52.460;13.528;2022-12-05T07:14:43;31.27;;;18.75;;
2123;SDS011;1068;52.460;13.528;2022-12-05T07:17:11;29.65;;;18.48;;
2123;SDS011;1068;52.460;13.528;2022-12-05T07:19:38;26.48;;;17.88;;
2123;SDS011;1068;52.460;13.528;2022-12-05T07:22:05;34.35;;;19.35;;
2123;SDS011;1068;52.460;13.528;2022-12-05T07:24:31;32.78;;;19.58;;
2123;SDS011;1068;52.460;13.528;2022-12-05T07:26:58;30.63;;;17.58;;
2123;SDS011;1068;52.460;13.528;2022-12-05T07:29:27;28.73;;;18.45;;
2123;SDS011;1068;52.460;13.528;2022-12-05T07:31:54;31.65;;;19.13;;
2123;SDS011;1068;52.460;13.528;2022-12-05T07:34:20;31.27;;;18.63;;
2123;SDS011;1068;52.460;13.528;2022-12-05T07:36:47;28.42;;;18.27;;
2123;SDS011;1068;52.460;13.528;2022-12-05T07:39:14;27.17;;;18.15;;
2123;SDS011;1068;52.460;13.528;2022-12-05T07:41:41;26.85;;;19.58;;
2123;SDS011;1068;52.460;13.528;2022-12-05T07:44:08;28.60;;;17.50;;
2123;SDS011;1068;52.460;13.528;2022-12-05T07:46:38;29.33;;;19.63;;
2123;SDS011;1068;52.460;13.528;2022-12-05T07:49:05;31.35;;;18.60;;
2123;SDS011;1068;52.460;13.528;2022-12-05T07:51:32;32.28;;;19.58;;
2123;SDS011;1068;52.460;13.528;2022-12-05T07:54:00;30.90;;;19.33;;
2123;SDS011;1068;52.460;13.528;2022-12-05T07:56:27;29.95;;;19.90;;
2123;SDS011;1068;52.460;13.528;2022-12-05T07:58:54;29.67;;;19.23;;
2123;SDS011;1068;52.460;13.528;2022-12-05T08:01:22;29.27;;;17.85;;
2123;SDS011;1068;52.460;13.528;2022-12-05T08:03:50;28.95;;;17.52;;
2123;SDS011;1068;52.460;13.528;2022-12-05T08:06:19;30.80;;;19.48;;
2123;SDS011;1068;52.460;13.528;2022-12-05T08:08:46;35.15;;;19.55;;
2123;SDS011;1068;52.460;13.528;2022-12-05T08:11:15;31.23;;;19.38;;
2123;SDS011;1068;52.460;13.528;2022-12-05T08:13:43;27.77;;;17.35;;
2123;SDS011;1068;52.460;13.528;2022-12-05T08:16:11;31.60;;;18.77;;
2123;SDS011;1068;52.460;13.528;2022-12-05T08:18:38;29.42;;;18.02;;
2123;SDS011;1068;52.460;13.528;2022-12-05T08:21:08;29.48;;;19.85;;
2123;SDS011;1068;52.460;13.528;2022-12-05T08:23:36;30.27;;;19.00;;
2123;SDS011;1068;52.460;13.528;2022-12-05T08:26:03;29.92;;;18.50;;
2123;SDS011;1068;52.460;13.528;2022-12-05T08:28:31;25.95;;;16.95;;
2123;SDS011;1068;52.460;13.528;2022-12-05T08:31:01;24.67;;;17.48;;
2123;SDS011;1068;52.460;13.528;2022-12-05T08:33:28;23.60;;;16.50;;
2123;SDS011;1068;52.460;13.528;2022-12-05T08:35:55;26.00;;;16.33;;
2123;SDS011;1068;52.460;13.528;2022-12-05T08:38:23;26.63;;;17.00;;
2123;SDS011;1068;52.460;13.528;2022-12-05T08:40:50;23.52;;;16.77;;
2123;SDS011;1068;52.460;13.528;2022-12-05T08:43:17;20.73;;;14.73;;
2123;SDS011;1068;52.460;13.528;2022-12-05T08:45:47;22.80;;;15.13;;
2123;SDS011;1068;52.460;13.528;2022-12-05T08:48:14;23.58;;;15.00;;
2123;SDS011;1068;52.460;13.528;2022-12-05T08:50:41;21.73;;;14.75;;
2123;SDS011;1068;52.460;13.528;2022-12-05T08:53:08;22.42;;;15.95;;
2123;SDS011;1068;52.460;13.528;2022-12-05T08:55:36;20.50;;;14.27;;
2123;SDS011;1068;52.460;13.528;2022-12-05T08:58:03;20.92;;;15.55;;
2123;SDS011;1068;52.460;13.528;2022-12-05T09:00:31;22.33;;;15.00;;
2123;SDS011;1068;52.460;13.528;2022-12-05T09:02:58;21.45;;;15.23;;
2123;SDS011;1068;52.460;13.528;2022-12-05T09:05:25;24.40;;;17.42;;
2123;SDS011;1068;52.460;13.528;2022-12-05T09:07:52;25.45;;;15.88;;
2123;SDS011;1068;52.460;13.528;2022-12-05T09:10:19;25.90;;;17.08;;
2123;SDS011;1068;52.460;13.528;2022-12-05T09:12:48;24.48;;;16.17;;
2123;SDS011;1068;52.460;13.528;2022-12-05T09:15:15;24.63;;;16.40;;
2123;SDS011;1068;52.460;13.528;2022-12-05T09:17:42;25.13;;;15.25;;
2123;SDS011;1068;52.460;13.528;2022-12-05T09:20:09;23.52;;;15.82;;
2123;SDS011;1068;52.460;13.528;2022-12-05T09:22:37;25.98;;;16.67;;
2123;SDS011;1068;52.460;13.528;2022-12-05T09:25:05;21.90;;;15.20;;
2123;SDS011;1068;52.460;13.528;2022-12-05T09:27:32;30.38;;;21.10;;
2123;SDS011;1068;52.460;13.528;2022-12-05T09:30:01;26.15;;;17.55;;
2123;SDS011;1068;52.460;13.528;2022-12-05T09:32:28;28.40;;;18.10;;
2123;SDS011;1068;52.460;13.528;2022-12-05T09:34:54;26.13;;;17.48;;
2123;SDS011;1068;52.460;13.528;2022-12-05T09:37:21;26.75;;;17.92;;
2123;SDS011;1068;52.460;13.528;2022-12-05T09:39:48;24.80;;;16.73;;
2123;SDS011;1068;52.460;13.528;2022-12-05T09:42:19;25.83;;;17.88;;
2123;SDS011;1068;52.460;13.528;2022-12-05T09:44:53;29.65;;;18.95;;
2123;SDS011;1068;52.460;13.528;2022-12-05T09:50:16;26.23;;;17.15;;
2123;SDS011;1068;52.460;13.528;2022-12-05T09:52:50;26.27;;;17.08;;
2123;SDS011;1068;52.460;13.528;2022-12-05T09:55:19;23.10;;;16.05;;
2123;SDS011;1068;52.460;13.528;2022-12-05T09:57:48;25.55;;;16.90;;
2123;SDS011;1068;52.460;13.528;2022-12-05T10:00:15;27.08;;;17.77;;
2123;SDS011;1068;52.460;13.528;2022-12-05T10:02:44;25.52;;;17.67;;
2123;SDS011;1068;52.460;13.528;2022-12-05T10:05:16;28.63;;;20.70;;
2123;SDS011;1068;52.460;13.528;2022-12-05T10:07:46;27.35;;;17.75;;
2123;SDS011;1068;52.460;13.528;2022-12-05T10:10:20;25.10;;;17.10;;
2123;SDS011;1068;52.460;13.528;2022-12-05T10:12:53;23.40;;;16.10;;
2123;SDS011;1068;52.460;13.528;2022-12-05T10:15:25;25.02;;;18.02;;
2123;SDS011;1068;52.460;13.528;2022-12-05T10:17:55;24.90;;;16.45;;
2123;SDS011;1068;52.460;13.528;2022-12-05T10:20:26;24.45;;;17.23;;
2123;SDS011;1068;52.460;13.528;2022-12-05T10:22:54;26.67;;;17.10;;
2123;SDS011;1068;52.460;13.528;2022-12-05T10:25:22;27.55;;;17.73;;
2123;SDS011;1068;52.460;13.528;2022-12-05T10:27:52;26.58;;;18.40;;
2123;SDS011;1068;52.460;13.528;2022-12-05T10:30:21;28.33;;;17.92;;
2123;SDS011;1068;52.460;13.528;2022-12-05T10:32:50;27.52;;;17.70;;
2123;SDS011;1068;52.460;13.528;2022-12-05T10:35:17;26.00;;;17.23;;
2123;SDS011;1068;52.460;13.528;2022-12-05T10:37:47;23.65;;;16.33;;
2123;SDS011;1068;52.460;13.528;2022-12-05T10:40:14;24.27;;;17.98;;
2123;SDS011;1068;52.460;13.528;2022-12-05T10:42:41;25.55;;;17.08;;
2123;SDS011;1068;52.460;13.528;2022-12-05T10:45:12;30.23;;;17.33;;
2123;SDS011;1068;52.460;13.528;2022-12-05T10:47:40;25.63;;;16.55;;
2123;SDS011;1068;52.460;13.528;2022-12-05T10:50:19;26.80;;;17.45;;
2123;SDS011;1068;52.460;13.528;2022-12-05T10:52:47;25.77;;;17.77;;
2123;SDS011;1068;52.460;13.528;2022-12-05T10:55:15;27.35;;;16.98;;
2123;SDS011;1068;52.460;13.528;2022-12-05T10:57:43;23.48;;;17.17;;
2123;SDS011;1068;52.460;13.528;2022-12-05T11:00:15;23.73;;;17.15;;
2123;SDS011;1068;52.460;13.528;2022-12-05T11:02:42;25.02;;;18.02;;
2123;SDS011;1068;52.460;13.528;2022-12-05T11:05:09;24.23;;;17.00;;
2123;SDS011;1068;52.460;13.528;2022-12-05T11:07:37;27.33;;;17.85;;
2123;SDS011;1068;52.460;13.528;2022-12-05T11:10:18;25.77;;;17.75;;
2123;SDS011;1068;52.460;13.528;2022-12-05T11:12:46;26.15;;;17.63;;
2123;SDS011;1068;52.460;13.528;2022-12-05T11:15:18;27.45;;;19.15;;
2123;SDS011;1068;52.460;13.528;2022-12-05T11:17:48;24.80;;;17.02;;
2123;SDS011;1068;52.460;13.528;2022-12-05T11:22:57;32.15;;;19.02;;
2123;SDS011;1068;52.460;13.528;2022-12-05T11:25:28;26.58;;;18.33;;
2123;SDS011;1068;52.460;13.528;2022-12-05T11:27:56;28.80;;;17.70;;
2123;SDS011;1068;52.460;13.528;2022-12-05T11:30:24;28.40;;;18.42;;
2123;SDS011;1068;52.460;13.528;2022-12-05T11:32:57;25.70;;;18.40;;
2123;SDS011;1068;52.460;13.528;2022-12-05T11:35:35;28.67;;;19.13;;
2123;SDS011;1068;52.460;13.528;2022-12-05T11:38:03;24.67;;;17.67;;
2123;SDS011;1068;52.460;13.528;2022-12-05T11:40:35;29.27;;;19.35;;
2123;SDS011;1068;52.460;13.528;2022-12-05T11:43:10;27.23;;;18.60;;
2123;SDS011;1068;52.460;13.528;2022-12-05T11:45:44;27.67;;;19.02;;
2123;SDS011;1068;52.460;13.528;2022-12-05T11:48:21;26.10;;;18.70;;
2123;SDS011;1068;52.460;13.528;2022-12-05T11:50:51;27.83;;;18.33;;
2123;SDS011;1068;52.460;13.528;2022-12-05T11:53:30;31.38;;;19.65;;
2123;SDS011;1068;52.460;13.528;2022-12-05T11:56:04;33.63;;;19.67;;
2123;SDS011;1068;52.460;13.528;2022-12-05T11:58:45;31.35;;;19.70;;
2123;SDS011;1068;52.460;13.528;2022-12-05T12:01:17;31.60;;;18.70;;
2123;SDS011;1068;52.460;13.528;2022-12-05T12:03:53;32.70;;;21.33;;
2123;SDS011;1068;52.460;13.528;2022-12-05T12:06:24;30.98;;;20.25;;
2123;SDS011;1068;52.460;13.528;2022-12-05T12:08:55;30.83;;;20.38;;
2123;SDS011;1068;52.460;13.528;2022-12-05T12:11:32;29.38;;;20.48;;
2123;SDS011;1068;52.460;13.528;2022-12-05T12:14:02;30.63;;;20.35;;
2123;SDS011;1068;52.460;13.528;2022-12-05T12:16:33;27.85;;;19.23;;
2123;SDS011;1068;52.460;13.528;2022-12-05T12:19:08;33.57;;;20.57;;
2123;SDS011;1068;52.460;13.528;2022-12-05T12:21:58;32.30;;;21.52;;
2123;SDS011;1068;52.460;13.528;2022-12-05T12:24:30;30.13;;;19.70;;
2123;SDS011;1068;52.460;13.528;2022-12-05T12:27:03;31.20;;;20.08;;
2123;SDS011;1068;52.460;13.528;2022-12-05T12:29:38;32.43;;;20.67;;
2123;SDS011;1068;52.460;13.528;2022-12-05T12:32:10;33.88;;;22.00;;
2123;SDS011;1068;52.460;13.528;2022-12-05T12:34:48;35.83;;;22.58;;
2123;SDS011;1068;52.460;13.528;2022-12-05T12:37:22;33.35;;;21.38;;
2123;SDS011;1068;52.460;13.528;2022-12-05T12:39:53;31.17;;;21.42;;
2123;SDS011;1068;52.460;13.528;2022-12-05T12:42:25;32.28;;;20.95;;
2123;SDS011;1068;52.460;13.528;2022-12-05T12:47:44;32.92;;;20.58;;
2123;SDS011;1068;52.460;13.528;2022-12-05T12:50:17;33.40;;;21.05;;
2123;SDS011;1068;52.460;13.528;2022-12-05T12:52:55;33.55;;;21.15;;
2123;SDS011;1068;52.460;13.528;2022-12-05T12:55:27;34.50;;;22.23;;
2123;SDS011;1068;52.460;13.528;2022-12-05T12:58:02;34.53;;;21.77;;
2123;SDS011;1068;52.460;13.528;2022-12-05T13:00:35;36.50;;;21.30;;
2123;SDS011;1068;52.460;13.528;2022-12-05T13:03:06;34.90;;;22.60;;
2123;SDS011;1068;52.460;13.528;2022-12-05T13:05:37;38.33;;;22.48;;
2123;SDS011;1068;52.460;13.528;2022-12-05T13:08:05;34.47;;;22.30;;
2123;SDS011;1068;52.460;13.528;2022-12-05T13:10:37;32.60;;;22.90;;
2123;SDS011;1068;52.460;13.528;2022-12-05T13:13:06;39.42;;;22.75;;
2123;SDS011;1068;52.460;13.528;2022-12-05T13:15:34;38.10;;;22.77;;
2123;SDS011;1068;52.460;13.528;2022-12-05T13:18:04;43.13;;;23.85;;
2123;SDS011;1068;52.460;13.528;2022-12-05T13:20:32;38.50;;;22.38;;
2123;SDS011;1068;52.460;13.528;2022-12-05T13:23:00;37.95;;;24.40;;
2123;SDS011;1068;52.460;13.528;2022-12-05T13:25:28;39.83;;;23.75;;
2123;SDS011;1068;52.460;13.528;2022-12-05T13:27:56;36.88;;;22.70;;
2123;SDS011;1068;52.460;13.528;2022-12-05T13:30:25;37.28;;;23.42;;
2123;SDS011;1068;52.460;13.528;2022-12-05T13:32:53;42.45;;;25.42;;
2123;SDS011;1068;52.460;13.528;2022-12-05T13:35:22;40.38;;;25.23;;
2123;SDS011;1068;52.460;13.528;2022-12-05T13:38:17;39.53;;;22.48;;
2123;SDS011;1068;52.460;13.528;2022-12-05T13:41:03;42.90;;;24.88;;
2123;SDS011;1068;52.460;13.528;2022-12-05T13:43:49;42.30;;;24.65;;
2123;SDS011;1068;52.460;13.528;2022-12-05T13:46:19;40.83;;;24.03;;
2123;SDS011;1068;52.460;13.528;2022-12-05T13:48:48;43.10;;;26.08;;
2123;SDS011;1068;52.460;13.528;2022-12-05T13:51:19;42.23;;;25.30;;
2123;SDS011;1068;52.460;13.528;2022-12-05T13:53:48;38.30;;;24.00;;
2123;SDS011;1068;52.460;13.528;2022-12-05T13:56:25;35.72;;;22.38;;
2123;SDS011;1068;52.460;13.528;2022-12-05T13:58:53;42.10;;;24.95;;
2123;SDS011;1068;52.460;13.528;2022-12-05T14:04:20;42.70;;;24.87;;
2123;SDS011;1068;52.460;13.528;2022-12-05T14:06:54;42.73;;;24.30;;
2123;SDS011;1068;52.460;13.528;2022-12-05T14:09:28;47.35;;;26.30;;
2123;SDS011;1068;52.460;13.528;2022-12-05T14:14:57;45.03;;;25.43;;
2123;SDS011;1068;52.460;13.528;2022-12-05T14:17:24;45.35;;;26.00;;
2123;SDS011;1068;52.460;13.528;2022-12-05T14:19:55;47.10;;;25.98;;
2123;SDS011;1068;52.460;13.528;2022-12-05T14:22:32;42.85;;;24.77;;
2123;SDS011;1068;52.460;13.528;2022-12-05T14:25:03;45.33;;;25.23;;
2123;SDS011;1068;52.460;13.528;2022-12-05T14:27:38;46.80;;;24.13;;
2123;SDS011;1068;52.460;13.528;2022-12-05T14:30:17;41.43;;;24.80;;
2123;SDS011;1068;52.460;13.528;2022-12-05T14:32:45;45.40;;;26.95;;
2123;SDS011;1068;52.460;13.528;2022-12-05T14:35:15;38.60;;;23.67;;
2123;SDS011;1068;52.460;13.528;2022-12-05T14:37:49;39.47;;;25.23;;
2123;SDS011;1068;52.460;13.528;2022-12-05T14:40:17;43.40;;;25.00;;
2123;SDS011;1068;52.460;13.528;2022-12-05T14:42:49;47.73;;;26.17;;
2123;SDS011;1068;52.460;13.528;2022-12-05T14:45:26;46.47;;;26.17;;
2123;SDS011;1068;52.460;13.528;2022-12-05T14:47:54;51.57;;;28.93;;
2123;SDS011;1068;52.460;13.528;2022-12-05T14:50:32;45.63;;;25.98;;
2123;SDS011;1068;52.460;13.528;2022-12-05T14:55:46;48.60;;;26.50;;
2123;SDS011;1068;52.460;13.528;2022-12-05T14:58:15;47.23;;;26.27;;
2123;SDS011;1068;52.460;13.528;2022-12-05T15:00:43;43.30;;;25.97;;
2123;SDS011;1068;52.460;13.528;2022-12-05T15:03:10;47.57;;;25.80;;
2123;SDS011;1068;52.460;13.528;2022-12-05T15:05:44;42.67;;;24.23;;